sensor_id;sensor_type;location;lat;lon;timestamp;pressure;altitude;pressure_sealevel;temperature;humidity
61554;BME280;47425;51.976;5.326;2023-08-06T00:01:32;100290.72;;;20.90;56.76
61554;BME280;47425;51.976;5.326;2023-08-06T00:03:59;100293.88;;;20.95;56.64
61554;BME280;47425;51.976;5.326;2023-08-06T00:06:27;100295.72;;;20.95;56.34
61554;BME280;47425;51.976;5.326;2023-08-06T00:08:53;100295.72;;;20.95;56.87
61554;BME280;47425;51.976;5.326;2023-08-06T00:11:21;100296.44;;;20.97;56.71
61554;BME280;47425;51.976;5.326;2023-08-06T00:13:48;100281.81;;;21.03;56.27
61554;BME280;47425;51.976;5.326;2023-08-06T00:16:14;100292.16;;;21.07;56.18
61554;BME280;47425;51.976;5.326;2023-08-06T00:18:42;100287.34;;;21.12;55.76
61554;BME280;47425;51.976;5.326;2023-08-06T00:21:09;100287.47;;;21.11;55.89
61554;BME280;47425;51.976;5.326;2023-08-06T00:23:37;100289.47;;;21.07;56.42
61554;BME280;47425;51.976;5.326;2023-08-06T00:26:03;100280.63;;;21.07;56.36
61554;BME280;47425;51.976;5.326;2023-08-06T00:28:31;100282.22;;;21.09;56.14
61554;BME280;47425;51.976;5.326;2023-08-06T00:30:58;100287.88;;;21.05;56.41
61554;BME280;47425;51.976;5.326;2023-08-06T00:33:24;100287.38;;;21.00;56.68
61554;BME280;47425;51.976;5.326;2023-08-06T00:35:51;100284.00;;;20.98;56.04
61554;BME280;47425;51.976;5.326;2023-08-06T00:38:18;100282.41;;;20.95;56.36
61554;BME280;47425;51.976;5.326;2023-08-06T00:40:44;100279.28;;;21.01;56.32
61554;BME280;47425;51.976;5.326;2023-08-06T00:43:11;100292.47;;;21.03;56.12
61554;BME280;47425;51.976;5.326;2023-08-06T00:45:39;100280.94;;;21.15;56.34
61554;BME280;47425;51.976;5.326;2023-08-06T00:48:06;100281.34;;;21.22;55.88
61554;BME280;47425;51.976;5.326;2023-08-06T00:50:32;100285.94;;;21.07;56.23
61554;BME280;47425;51.976;5.326;2023-08-06T00:52:59;100289.88;;;20.90;56.16
61554;BME280;47425;51.976;5.326;2023-08-06T00:55:27;100282.41;;;20.95;56.80
61554;BME280;47425;51.976;5.326;2023-08-06T00:57:55;100280.56;;;20.95;56.68
61554;BME280;47425;51.976;5.326;2023-08-06T01:00:22;100280.22;;;21.00;56.06
61554;BME280;47425;51.976;5.326;2023-08-06T01:02:50;100284.41;;;21.04;56.11
61554;BME280;47425;51.976;5.326;2023-08-06T01:05:16;100277.00;;;21.08;55.99
61554;BME280;47425;51.976;5.326;2023-08-06T01:07:46;100282.00;;;21.12;55.92
61554;BME280;47425;51.976;5.326;2023-08-06T01:10:27;100282.13;;;21.11;55.84
61554;BME280;47425;51.976;5.326;2023-08-06T01:12:59;100272.25;;;21.00;56.39
61554;BME280;47425;51.976;5.326;2023-08-06T01:15:35;100276.84;;;20.98;56.14
61554;BME280;47425;51.976;5.326;2023-08-06T01:18:05;100274.34;;;21.08;56.35
61554;BME280;47425;51.976;5.326;2023-08-06T01:20:33;100277.66;;;21.11;55.89
61554;BME280;47425;51.976;5.326;2023-08-06T01:22:59;100269.59;;;21.00;56.09
61554;BME280;47425;51.976;5.326;2023-08-06T01:25:28;100275.63;;;20.78;56.91
61554;BME280;47425;51.976;5.326;2023-08-06T01:27:56;100274.56;;;20.68;57.26
61554;BME280;47425;51.976;5.326;2023-08-06T01:30:25;100274.47;;;20.69;57.17
61554;BME280;47425;51.976;5.326;2023-08-06T01:32:55;100272.44;;;20.73;56.89
61554;BME280;47425;51.976;5.326;2023-08-06T01:35:26;100274.97;;;20.87;57.11
61554;BME280;47425;51.976;5.326;2023-08-06T01:37:55;100275.91;;;20.86;56.45
61554;BME280;47425;51.976;5.326;2023-08-06T01:40:22;100277.13;;;20.69;57.17
61554;BME280;47425;51.976;5.326;2023-08-06T01:42:52;100280.56;;;20.71;56.84
61554;BME280;47425;51.976;5.326;2023-08-06T01:45:20;100275.44;;;20.68;57.67
61554;BME280;47425;51.976;5.326;2023-08-06T01:47:48;100282.56;;;20.81;57.29
61554;BME280;47425;51.976;5.326;2023-08-06T01:50:15;100274.09;;;20.87;57.01
61554;BME280;47425;51.976;5.326;2023-08-06T01:52:41;100273.53;;;20.94;56.65
61554;BME280;47425;51.976;5.326;2023-08-06T01:55:09;100275.78;;;21.01;56.32
61554;BME280;47425;51.976;5.326;2023-08-06T01:57:37;100284.06;;;20.96;56.53
61554;BME280;47425;51.976;5.326;2023-08-06T02:00:03;100281.94;;;21.01;56.28
61554;BME280;47425;51.976;5.326;2023-08-06T02:02:38;100278.03;;;20.94;56.58
61554;BME280;47425;51.976;5.326;2023-08-06T02:05:06;100282.84;;;20.89;56.98
61554;BME280;47425;51.976;5.326;2023-08-06T02:07:32;100278.88;;;20.94;56.92
61554;BME280;47425;51.976;5.326;2023-08-06T02:10:00;100286.81;;;20.83;56.64
61554;BME280;47425;51.976;5.326;2023-08-06T02:12:28;100284.97;;;20.84;56.73
61554;BME280;47425;51.976;5.326;2023-08-06T02:14:54;100282.03;;;20.75;57.28
61554;BME280;47425;51.976;5.326;2023-08-06T02:17:21;100281.69;;;20.67;57.60
61554;BME280;47425;51.976;5.326;2023-08-06T02:19:47;100279.81;;;20.56;58.10
61554;BME280;47425;51.976;5.326;2023-08-06T02:22:15;100279.16;;;20.66;57.76
61554;BME280;47425;51.976;5.326;2023-08-06T02:24:41;100277.38;;;20.53;58.06
61554;BME280;47425;51.976;5.326;2023-08-06T02:27:09;100277.81;;;20.34;58.37
61554;BME280;47425;51.976;5.326;2023-08-06T02:29:37;100276.25;;;20.06;58.91
61554;BME280;47425;51.976;5.326;2023-08-06T02:32:06;100274.63;;;20.03;59.62
61554;BME280;47425;51.976;5.326;2023-08-06T02:34:34;100273.06;;;19.88;59.53
61554;BME280;47425;51.976;5.326;2023-08-06T02:37:00;100277.25;;;19.77;60.34
61554;BME280;47425;51.976;5.326;2023-08-06T02:39:27;100275.16;;;19.83;60.59
61554;BME280;47425;51.976;5.326;2023-08-06T02:41:53;100276.03;;;19.96;59.94
61554;BME280;47425;51.976;5.326;2023-08-06T02:44:20;100268.59;;;20.01;60.08
61554;BME280;47425;51.976;5.326;2023-08-06T02:46:49;100278.06;;;20.05;59.66
61554;BME280;47425;51.976;5.326;2023-08-06T02:49:16;100267.09;;;19.97;60.00
61554;BME280;47425;51.976;5.326;2023-08-06T02:51:44;100270.59;;;19.98;59.68
61554;BME280;47425;51.976;5.326;2023-08-06T02:54:10;100268.91;;;19.84;59.76
61554;BME280;47425;51.976;5.326;2023-08-06T02:56:37;100262.16;;;19.65;59.97
61554;BME280;47425;51.976;5.326;2023-08-06T02:59:23;100265.72;;;19.38;60.92
61554;BME280;47425;51.976;5.326;2023-08-06T03:02:15;100262.13;;;19.12;61.63
61554;BME280;47425;51.976;5.326;2023-08-06T03:05:03;100262.84;;;18.87;62.35
61554;BME280;47425;51.976;5.326;2023-08-06T03:07:34;100261.75;;;18.62;62.52
61554;BME280;47425;51.976;5.326;2023-08-06T03:10:11;100257.59;;;18.58;63.12
61554;BME280;47425;51.976;5.326;2023-08-06T03:12:41;100250.59;;;18.57;63.86
61554;BME280;47425;51.976;5.326;2023-08-06T03:15:08;100258.38;;;18.45;63.75
61554;BME280;47425;51.976;5.326;2023-08-06T03:17:37;100258.84;;;18.38;64.44
61554;BME280;47425;51.976;5.326;2023-08-06T03:20:05;100263.66;;;18.60;64.16
61554;BME280;47425;51.976;5.326;2023-08-06T03:22:33;100261.72;;;18.76;63.81
61554;BME280;47425;51.976;5.326;2023-08-06T03:24:59;100261.06;;;18.73;63.37
61554;BME280;47425;51.976;5.326;2023-08-06T03:27:27;100265.63;;;18.71;63.98
61554;BME280;47425;51.976;5.326;2023-08-06T03:29:55;100261.97;;;18.86;63.79
61554;BME280;47425;51.976;5.326;2023-08-06T03:32:25;100258.50;;;18.86;63.08
61554;BME280;47425;51.976;5.326;2023-08-06T03:34:55;100258.88;;;18.79;63.68
61554;BME280;47425;51.976;5.326;2023-08-06T03:37:24;100263.03;;;18.84;63.46
61554;BME280;47425;51.976;5.326;2023-08-06T03:39:51;100266.44;;;18.86;63.18
61554;BME280;47425;51.976;5.326;2023-08-06T03:42:18;100267.41;;;18.85;63.43
61554;BME280;47425;51.976;5.326;2023-08-06T03:44:46;100265.44;;;18.74;63.84
61554;BME280;47425;51.976;5.326;2023-08-06T03:47:13;100264.38;;;18.76;64.01
61554;BME280;47425;51.976;5.326;2023-08-06T03:49:39;100267.13;;;18.89;63.68
61554;BME280;47425;51.976;5.326;2023-08-06T03:52:08;100260.47;;;18.82;63.80
61554;BME280;47425;51.976;5.326;2023-08-06T03:54:35;100260.97;;;18.74;63.76
61554;BME280;47425;51.976;5.326;2023-08-06T03:57:03;100258.63;;;18.55;64.34
61554;BME280;47425;51.976;5.326;2023-08-06T03:59:31;100261.69;;;18.35;64.81
61554;BME280;47425;51.976;5.326;2023-08-06T04:01:57;100263.41;;;18.21;65.53
61554;BME280;47425;51.976;5.326;2023-08-06T04:04:24;100265.84;;;18.24;65.51
61554;BME280;47425;51.976;5.326;2023-08-06T04:06:50;100264.72;;;18.28;65.96
61554;BME280;47425;51.976;5.326;2023-08-06T04:09:22;100263.59;;;18.33;65.63
61554;BME280;47425;51.976;5.326;2023-08-06T04:11:50;100260.66;;;18.37;65.23
61554;BME280;47425;51.976;5.326;2023-08-06T04:14:16;100262.16;;;18.13;65.55
61554;BME280;47425;51.976;5.326;2023-08-06T04:16:43;100266.91;;;17.93;66.14
61554;BME280;47425;51.976;5.326;2023-08-06T04:19:09;100269.94;;;18.01;66.58
61554;BME280;47425;51.976;5.326;2023-08-06T04:21:37;100268.34;;;18.13;66.63
61554;BME280;47425;51.976;5.326;2023-08-06T04:24:04;100273.72;;;18.11;66.06
61554;BME280;47425;51.976;5.326;2023-08-06T04:26:32;100274.66;;;17.96;66.62
61554;BME280;47425;51.976;5.326;2023-08-06T04:28:59;100274.66;;;17.96;66.92
61554;BME280;47425;51.976;5.326;2023-08-06T04:31:26;100281.97;;;17.91;66.87
61554;BME280;47425;51.976;5.326;2023-08-06T04:33:56;100283.28;;;18.00;66.90
61554;BME280;47425;51.976;5.326;2023-08-06T04:36:23;100277.78;;;18.17;66.75
61554;BME280;47425;51.976;5.326;2023-08-06T04:38:49;100275.78;;;18.35;66.25
61554;BME280;47425;51.976;5.326;2023-08-06T04:41:16;100275.13;;;18.46;66.29
61554;BME280;47425;51.976;5.326;2023-08-06T04:43:44;100285.34;;;18.52;65.39
61554;BME280;47425;51.976;5.326;2023-08-06T04:46:12;100289.97;;;18.63;65.47
61554;BME280;47425;51.976;5.326;2023-08-06T04:48:39;100292.53;;;18.65;65.45
61554;BME280;47425;51.976;5.326;2023-08-06T04:51:05;100287.03;;;18.68;65.24
61554;BME280;47425;51.976;5.326;2023-08-06T04:53:32;100299.06;;;18.73;65.13
61554;BME280;47425;51.976;5.326;2023-08-06T04:55:58;100298.69;;;18.65;64.95
61554;BME280;47425;51.976;5.326;2023-08-06T04:58:26;100288.38;;;18.60;65.51
61554;BME280;47425;51.976;5.326;2023-08-06T05:00:54;100293.38;;;18.65;65.38
61554;BME280;47425;51.976;5.326;2023-08-06T05:03:20;100293.84;;;18.72;65.33
61554;BME280;47425;51.976;5.326;2023-08-06T05:05:47;100302.19;;;18.66;64.90
61554;BME280;47425;51.976;5.326;2023-08-06T05:08:13;100302.19;;;18.66;65.47
61554;BME280;47425;51.976;5.326;2023-08-06T05:10:42;100295.97;;;18.67;65.13
61554;BME280;47425;51.976;5.326;2023-08-06T05:13:08;100302.88;;;18.69;65.04
61554;BME280;47425;51.976;5.326;2023-08-06T05:15:35;100309.38;;;18.64;65.62
61554;BME280;47425;51.976;5.326;2023-08-06T05:18:03;100307.88;;;18.59;65.10
61554;BME280;47425;51.976;5.326;2023-08-06T05:20:29;100310.16;;;18.51;65.55
61554;BME280;47425;51.976;5.326;2023-08-06T05:22:56;100315.47;;;18.51;65.61
61554;BME280;47425;51.976;5.326;2023-08-06T05:25:22;100323.53;;;18.50;65.83
61554;BME280;47425;51.976;5.326;2023-08-06T05:27:49;100329.97;;;18.45;65.78
61554;BME280;47425;51.976;5.326;2023-08-06T05:30:15;100327.03;;;18.36;66.00
61554;BME280;47425;51.976;5.326;2023-08-06T05:32:41;100329.75;;;18.20;66.29
61554;BME280;47425;51.976;5.326;2023-08-06T05:35:09;100340.16;;;18.08;66.58
61554;BME280;47425;51.976;5.326;2023-08-06T05:37:36;100339.09;;;18.11;67.00
61554;BME280;47425;51.976;5.326;2023-08-06T05:40:02;100340.72;;;18.14;66.96
61554;BME280;47425;51.976;5.326;2023-08-06T05:42:29;100342.53;;;18.13;67.28
61554;BME280;47425;51.976;5.326;2023-08-06T05:44:56;100345.81;;;18.17;67.31
61554;BME280;47425;51.976;5.326;2023-08-06T05:47:22;100359.47;;;18.25;67.48
61554;BME280;47425;51.976;5.326;2023-08-06T05:49:48;100353.22;;;18.26;67.17
61554;BME280;47425;51.976;5.326;2023-08-06T05:52:16;100357.41;;;18.30;67.10
61554;BME280;47425;51.976;5.326;2023-08-06T05:54:43;100362.06;;;18.26;67.04
61554;BME280;47425;51.976;5.326;2023-08-06T05:57:09;100361.81;;;18.15;67.09
61554;BME280;47425;51.976;5.326;2023-08-06T05:59:36;100363.44;;;18.18;67.42
61554;BME280;47425;51.976;5.326;2023-08-06T06:02:02;100364.47;;;18.15;66.95
61554;BME280;47425;51.976;5.326;2023-08-06T06:04:29;100372.44;;;18.15;67.72
61554;BME280;47425;51.976;5.326;2023-08-06T06:06:55;100372.66;;;18.26;67.41
61554;BME280;47425;51.976;5.326;2023-08-06T06:09:23;100376.81;;;18.31;67.20
61554;BME280;47425;51.976;5.326;2023-08-06T06:11:50;100373.69;;;18.24;67.14
61554;BME280;47425;51.976;5.326;2023-08-06T06:14:16;100379.72;;;18.26;67.42
61554;BME280;47425;51.976;5.326;2023-08-06T06:16:43;100388.47;;;18.28;67.19
61554;BME280;47425;51.976;5.326;2023-08-06T06:19:09;100383.06;;;18.30;66.97
61554;BME280;47425;51.976;5.326;2023-08-06T06:21:36;100390.53;;;18.23;67.05
61554;BME280;47425;51.976;5.326;2023-08-06T06:24:03;100392.88;;;18.27;67.42
61554;BME280;47425;51.976;5.326;2023-08-06T06:26:31;100402.66;;;18.27;67.12
61554;BME280;47425;51.976;5.326;2023-08-06T06:28:57;100407.75;;;18.16;67.09
61554;BME280;47425;51.976;5.326;2023-08-06T06:31:25;100402.66;;;18.27;67.61
61554;BME280;47425;51.976;5.326;2023-08-06T06:33:51;100411.66;;;18.39;67.46
61554;BME280;47425;51.976;5.326;2023-08-06T06:36:20;100414.53;;;18.36;67.02
61554;BME280;47425;51.976;5.326;2023-08-06T06:38:47;100411.88;;;18.36;67.34
61554;BME280;47425;51.976;5.326;2023-08-06T06:41:14;100418.56;;;18.27;67.28
61554;BME280;47425;51.976;5.326;2023-08-06T06:43:42;100412.88;;;18.19;67.47
61554;BME280;47425;51.976;5.326;2023-08-06T06:46:08;100424.50;;;18.16;67.79
61554;BME280;47425;51.976;5.326;2023-08-06T06:48:36;100423.19;;;18.23;68.18
61554;BME280;47425;51.976;5.326;2023-08-06T06:51:03;100423.84;;;18.27;67.49
61554;BME280;47425;51.976;5.326;2023-08-06T06:53:29;100429.69;;;18.18;67.62
61554;BME280;47425;51.976;5.326;2023-08-06T06:55:56;100427.44;;;18.11;67.54
61554;BME280;47425;51.976;5.326;2023-08-06T06:58:22;100429.50;;;18.06;67.73
61554;BME280;47425;51.976;5.326;2023-08-06T07:00:51;100426.94;;;18.05;68.21
61554;BME280;47425;51.976;5.326;2023-08-06T07:03:19;100423.84;;;17.97;67.84
61554;BME280;47425;51.976;5.326;2023-08-06T07:05:45;100435.81;;;18.04;68.17
61554;BME280;47425;51.976;5.326;2023-08-06T07:08:12;100432.66;;;17.97;68.09
61554;BME280;47425;51.976;5.326;2023-08-06T07:10:40;100432.56;;;17.83;68.21
61554;BME280;47425;51.976;5.326;2023-08-06T07:13:06;100426.16;;;17.87;68.63
61554;BME280;47425;51.976;5.326;2023-08-06T07:15:33;100439.75;;;17.81;68.44
61554;BME280;47425;51.976;5.326;2023-08-06T07:18:01;100436.25;;;17.80;68.88
61554;BME280;47425;51.976;5.326;2023-08-06T07:20:27;100434.19;;;17.85;69.31
61554;BME280;47425;51.976;5.326;2023-08-06T07:22:56;100442.47;;;17.79;69.26
61554;BME280;47425;51.976;5.326;2023-08-06T07:25:23;100447.28;;;17.56;68.59
61554;BME280;47425;51.976;5.326;2023-08-06T07:27:51;100452.66;;;17.39;68.54
61554;BME280;47425;51.976;5.326;2023-08-06T07:30:17;100453.94;;;17.16;69.15
61554;BME280;47425;51.976;5.326;2023-08-06T07:32:44;100455.53;;;17.02;69.71
61554;BME280;47425;51.976;5.326;2023-08-06T07:35:12;100454.50;;;17.05;70.28
61554;BME280;47425;51.976;5.326;2023-08-06T07:37:39;100452.31;;;17.13;70.26
61554;BME280;47425;51.976;5.326;2023-08-06T07:40:07;100461.34;;;17.09;69.71
61554;BME280;47425;51.976;5.326;2023-08-06T07:42:34;100453.22;;;16.96;69.87
61554;BME280;47425;51.976;5.326;2023-08-06T07:45:01;100459.88;;;17.03;70.71
61554;BME280;47425;51.976;5.326;2023-08-06T07:47:29;100466.81;;;17.06;70.54
61554;BME280;47425;51.976;5.326;2023-08-06T07:49:55;100468.47;;;16.91;70.84
61554;BME280;47425;51.976;5.326;2023-08-06T07:52:24;100466.19;;;17.01;71.22
61554;BME280;47425;51.976;5.326;2023-08-06T07:54:51;100466.47;;;17.12;71.61
61554;BME280;47425;51.976;5.326;2023-08-06T07:57:17;100466.16;;;17.34;71.47
61554;BME280;47425;51.976;5.326;2023-08-06T07:59:45;100471.13;;;17.40;71.21
61554;BME280;47425;51.976;5.326;2023-08-06T08:02:12;100465.06;;;17.38;70.17
61554;BME280;47425;51.976;5.326;2023-08-06T08:04:38;100470.63;;;17.34;69.49
61554;BME280;47425;51.976;5.326;2023-08-06T08:07:05;100472.44;;;17.16;69.11
61554;BME280;47425;51.976;5.326;2023-08-06T08:09:34;100467.25;;;17.14;69.83
61554;BME280;47425;51.976;5.326;2023-08-06T08:12:00;100475.19;;;17.14;68.94
61554;BME280;47425;51.976;5.326;2023-08-06T08:14:29;100477.47;;;17.04;69.33
61554;BME280;47425;51.976;5.326;2023-08-06T08:17:01;100486.66;;;16.80;68.49
61554;BME280;47425;51.976;5.326;2023-08-06T08:19:28;100482.84;;;16.68;69.20
61554;BME280;47425;51.976;5.326;2023-08-06T08:21:55;100484.19;;;16.76;71.19
61554;BME280;47425;51.976;5.326;2023-08-06T08:24:21;100492.47;;;16.86;70.07
61554;BME280;47425;51.976;5.326;2023-08-06T08:26:51;100499.25;;;16.92;69.97
61554;BME280;47425;51.976;5.326;2023-08-06T08:29:19;100491.34;;;16.92;70.06
61554;BME280;47425;51.976;5.326;2023-08-06T08:31:45;100487.09;;;16.88;69.45
61554;BME280;47425;51.976;5.326;2023-08-06T08:34:14;100500.88;;;16.77;70.20
61554;BME280;47425;51.976;5.326;2023-08-06T08:36:42;100485.38;;;16.71;69.97
61554;BME280;47425;51.976;5.326;2023-08-06T08:39:08;100491.28;;;16.58;70.31
61554;BME280;47425;51.976;5.326;2023-08-06T08:41:35;100501.06;;;16.56;70.96
61554;BME280;47425;51.976;5.326;2023-08-06T08:44:03;100497.63;;;16.54;71.00
61554;BME280;47425;51.976;5.326;2023-08-06T08:46:33;100498.97;;;16.63;70.66
61554;BME280;47425;51.976;5.326;2023-08-06T08:49:03;100492.31;;;16.56;70.71
61554;BME280;47425;51.976;5.326;2023-08-06T09:00:45;100513.97;;;15.72;74.62
61554;BME280;47425;51.976;5.326;2023-08-06T09:03:37;100514.88;;;15.71;74.51
61554;BME280;47425;51.976;5.326;2023-08-06T09:06:04;100525.91;;;15.81;74.01
61554;BME280;47425;51.976;5.326;2023-08-06T09:08:35;100529.53;;;15.78;74.19
61554;BME280;47425;51.976;5.326;2023-08-06T09:11:05;100524.25;;;15.97;75.85
61554;BME280;47425;51.976;5.326;2023-08-06T09:13:31;100525.25;;;15.94;75.77
61554;BME280;47425;51.976;5.326;2023-08-06T09:15:59;100526.25;;;15.92;75.59
61554;BME280;47425;51.976;5.326;2023-08-06T09:18:26;100530.72;;;16.09;76.19
61554;BME280;47425;51.976;5.326;2023-08-06T09:20:54;100526.41;;;16.25;76.41
61554;BME280;47425;51.976;5.326;2023-08-06T09:23:21;100537.34;;;16.18;75.94
61554;BME280;47425;51.976;5.326;2023-08-06T09:25:53;100536.88;;;16.27;76.52
61554;BME280;47425;51.976;5.326;2023-08-06T09:28:19;100540.78;;;16.37;74.90
61554;BME280;47425;51.976;5.326;2023-08-06T09:30:47;100548.91;;;16.69;74.40
61554;BME280;47425;51.976;5.326;2023-08-06T09:33:15;100553.31;;;16.86;73.79
61554;BME280;47425;51.976;5.326;2023-08-06T09:35:45;100544.09;;;16.95;73.07
61554;BME280;47425;51.976;5.326;2023-08-06T09:38:12;100552.00;;;17.13;72.53
61554;BME280;47425;51.976;5.326;2023-08-06T09:40:39;100552.81;;;17.31;72.56
61554;BME280;47425;51.976;5.326;2023-08-06T09:43:06;100570.16;;;17.36;72.09
61554;BME280;47425;51.976;5.326;2023-08-06T09:45:32;100566.09;;;17.47;72.35
61554;BME280;47425;51.976;5.326;2023-08-06T09:48:02;100580.81;;;17.68;71.91
61554;BME280;47425;51.976;5.326;2023-08-06T09:50:31;100574.91;;;17.63;71.53
61554;BME280;47425;51.976;5.326;2023-08-06T09:52:58;100580.41;;;17.76;70.49
61554;BME280;47425;51.976;5.326;2023-08-06T09:55:24;100575.53;;;17.84;70.62
61554;BME280;47425;51.976;5.326;2023-08-06T09:57:51;100581.59;;;17.86;70.15
61554;BME280;47425;51.976;5.326;2023-08-06T10:00:18;100581.69;;;17.85;70.08
61554;BME280;47425;51.976;5.326;2023-08-06T10:02:46;100588.75;;;17.84;69.60
61554;BME280;47425;51.976;5.326;2023-08-06T10:05:14;100586.72;;;17.73;69.41
61554;BME280;47425;51.976;5.326;2023-08-06T10:07:43;100584.03;;;17.57;69.70
61554;BME280;47425;51.976;5.326;2023-08-06T10:10:10;100585.09;;;17.71;70.33
61554;BME280;47425;51.976;5.326;2023-08-06T10:12:39;100582.72;;;17.82;69.78
61554;BME280;47425;51.976;5.326;2023-08-06T10:15:07;100587.84;;;17.85;69.30
61554;BME280;47425;51.976;5.326;2023-08-06T10:17:35;100590.16;;;17.91;69.90
61554;BME280;47425;51.976;5.326;2023-08-06T10:20:03;100587.38;;;18.10;69.92
61554;BME280;47425;51.976;5.326;2023-08-06T10:22:32;100586.94;;;18.18;68.76
61554;BME280;47425;51.976;5.326;2023-08-06T10:25:01;100596.84;;;18.15;67.68
61554;BME280;47425;51.976;5.326;2023-08-06T10:27:30;100597.19;;;18.08;69.04
61554;BME280;47425;51.976;5.326;2023-08-06T10:32:46;100604.78;;;18.31;68.10
61554;BME280;47425;51.976;5.326;2023-08-06T10:35:27;100606.41;;;18.33;68.51
61554;BME280;47425;51.976;5.326;2023-08-06T10:37:59;100616.66;;;18.23;67.88
61554;BME280;47425;51.976;5.326;2023-08-06T10:40:29;100608.19;;;18.17;68.59
61554;BME280;47425;51.976;5.326;2023-08-06T10:42:56;100617.09;;;18.32;68.51
61554;BME280;47425;51.976;5.326;2023-08-06T10:45:24;100607.88;;;18.39;68.10
61554;BME280;47425;51.976;5.326;2023-08-06T10:47:55;100608.88;;;18.36;67.42
61554;BME280;47425;51.976;5.326;2023-08-06T10:50:22;100620.84;;;18.43;67.95
61554;BME280;47425;51.976;5.326;2023-08-06T10:52:49;100614.00;;;18.39;67.43
61554;BME280;47425;51.976;5.326;2023-08-06T10:55:21;100614.88;;;18.40;67.94
61554;BME280;47425;51.976;5.326;2023-08-06T10:57:49;100618.03;;;18.47;67.86
61554;BME280;47425;51.976;5.326;2023-08-06T11:00:17;100623.25;;;18.48;67.55
61554;BME280;47425;51.976;5.326;2023-08-06T11:02:44;100617.84;;;18.50;68.10
61554;BME280;47425;51.976;5.326;2023-08-06T11:05:12;100616.72;;;18.54;68.44
61554;BME280;47425;51.976;5.326;2023-08-06T11:07:39;100622.25;;;18.65;67.77
61554;BME280;47425;51.976;5.326;2023-08-06T11:10:07;100619.44;;;18.68;67.93
61554;BME280;47425;51.976;5.326;2023-08-06T11:12:35;100622.41;;;18.78;68.02
61554;BME280;47425;51.976;5.326;2023-08-06T11:15:03;100625.66;;;18.83;66.96
61554;BME280;47425;51.976;5.326;2023-08-06T11:17:31;100621.97;;;18.86;67.24
61554;BME280;47425;51.976;5.326;2023-08-06T11:19:58;100633.84;;;18.94;67.03
61554;BME280;47425;51.976;5.326;2023-08-06T11:22:25;100626.50;;;18.84;66.67
61554;BME280;47425;51.976;5.326;2023-08-06T11:24:53;100633.22;;;18.75;67.48
61554;BME280;47425;51.976;5.326;2023-08-06T11:27:20;100628.50;;;18.80;66.34
61554;BME280;47425;51.976;5.326;2023-08-06T11:29:46;100629.19;;;18.68;66.83
61554;BME280;47425;51.976;5.326;2023-08-06T11:32:14;100637.28;;;18.81;67.21
61554;BME280;47425;51.976;5.326;2023-08-06T11:34:40;100636.03;;;18.72;66.03
61554;BME280;47425;51.976;5.326;2023-08-06T11:37:08;100634.16;;;18.74;66.92
61554;BME280;47425;51.976;5.326;2023-08-06T11:39:36;100641.16;;;18.75;66.96
61554;BME280;47425;51.976;5.326;2023-08-06T11:42:03;100643.28;;;18.84;66.77
61554;BME280;47425;51.976;5.326;2023-08-06T11:44:30;100642.84;;;18.92;67.13
61554;BME280;47425;51.976;5.326;2023-08-06T11:46:58;100647.53;;;19.03;66.19
61554;BME280;47425;51.976;5.326;2023-08-06T11:49:38;100650.81;;;18.92;66.50
61554;BME280;47425;51.976;5.326;2023-08-06T11:52:08;100648.31;;;19.05;66.50
61554;BME280;47425;51.976;5.326;2023-08-06T11:54:34;100662.25;;;19.08;65.84
61554;BME280;47425;51.976;5.326;2023-08-06T11:57:02;100653.78;;;19.02;65.59
61554;BME280;47425;51.976;5.326;2023-08-06T11:59:30;100649.44;;;18.85;65.79
61554;BME280;47425;51.976;5.326;2023-08-06T12:02:00;100648.78;;;18.65;65.69
61554;BME280;47425;51.976;5.326;2023-08-06T12:04:26;100652.84;;;18.56;67.30
61554;BME280;47425;51.976;5.326;2023-08-06T12:06:54;100652.66;;;18.59;66.52
61554;BME280;47425;51.976;5.326;2023-08-06T12:09:20;100663.94;;;18.63;66.72
61554;BME280;47425;51.976;5.326;2023-08-06T12:11:49;100664.94;;;18.76;66.51
61554;BME280;47425;51.976;5.326;2023-08-06T12:14:15;100650.75;;;18.77;65.60
61554;BME280;47425;51.976;5.326;2023-08-06T12:16:42;100667.78;;;18.73;64.96
61554;BME280;47425;51.976;5.326;2023-08-06T12:19:09;100666.41;;;18.66;66.22
61554;BME280;47425;51.976;5.326;2023-08-06T12:21:36;100677.63;;;18.71;66.41
61554;BME280;47425;51.976;5.326;2023-08-06T12:24:05;100681.81;;;18.75;66.07
61554;BME280;47425;51.976;5.326;2023-08-06T12:26:32;100669.66;;;18.71;65.58
61554;BME280;47425;51.976;5.326;2023-08-06T12:28:59;100674.28;;;18.52;66.46
61554;BME280;47425;51.976;5.326;2023-08-06T12:31:25;100672.50;;;18.52;67.14
61554;BME280;47425;51.976;5.326;2023-08-06T12:33:52;100680.28;;;18.39;65.94
61554;BME280;47425;51.976;5.326;2023-08-06T12:36:19;100686.38;;;18.25;66.02
61554;BME280;47425;51.976;5.326;2023-08-06T12:38:46;100689.94;;;18.08;65.69
61554;BME280;47425;51.976;5.326;2023-08-06T12:41:14;100690.53;;;18.14;67.50
61554;BME280;47425;51.976;5.326;2023-08-06T12:43:40;100691.41;;;18.30;66.90
61554;BME280;47425;51.976;5.326;2023-08-06T12:46:07;100691.66;;;18.25;66.40
61554;BME280;47425;51.976;5.326;2023-08-06T12:48:34;100694.47;;;18.38;67.01
61554;BME280;47425;51.976;5.326;2023-08-06T12:51:01;100700.81;;;18.52;66.67
61554;BME280;47425;51.976;5.326;2023-08-06T12:53:27;100698.25;;;18.50;66.38
61554;BME280;47425;51.976;5.326;2023-08-06T12:55:55;100701.91;;;18.48;66.56
61554;BME280;47425;51.976;5.326;2023-08-06T12:58:23;100711.88;;;18.60;67.06
61554;BME280;47425;51.976;5.326;2023-08-06T13:00:51;100707.91;;;18.67;66.61
61554;BME280;47425;51.976;5.326;2023-08-06T13:03:17;100704.16;;;18.71;66.27
61554;BME280;47425;51.976;5.326;2023-08-06T13:05:43;100707.31;;;18.78;66.13